Terminal Aerodrome Forecast
Issued by NWS

Home | Current Version | Previous Version | Text Only | Print | Product List | Glossary On
Versions: 1 2 3 4 5 6 7 8 9 10 11 12 13 14 15 16 17 18 19
000
FTUS46 KPQR 281127
TAFONP
TAF
KONP 281127Z 2812/2912 36003KT P6SM OVC005
     FM281700 35012G20KT P6SM SCT007
     FM282100 35020G30KT P6SM SKC
     FM290300 36012G20KT P6SM BKN006
     FM290600 36009KT 5SM BR OVC005=

USA.gov is the U.S. government's official web portal to all federal, state and local government web resources and services.